Time;durP1;ratioP1;P1;durP2;ratioP2;P2;SDS_P1;SDS_P2;PMS_P1;PMS_P2;Temp;Humidity;BMP_temperature;BMP_pressure;BME280_temperature;BME280_humidity;BME280_pressure;Samples;Min_cycle;Max_cycle;Signal;HPM_P1;HPM_P2
2023/10/23 00:01:42;;;;;;;4.32;2.72;;;;;;;21.79;54.06;101078.88;4987035;28;20051;-58
2023/10/23 00:04:09;;;;;;;3.67;2.50;;;;;;;21.78;53.94;101078.03;4987939;28;20050;-58
2023/10/23 00:06:37;;;;;;;5.55;3.15;;;;;;;21.78;53.80;101079.88;4987876;28;20061;-58
2023/10/23 00:09:05;;;;;;;7.85;3.05;;;;;;;21.78;53.64;101087.97;4984062;28;20039;-58
2023/10/23 00:11:32;;;;;;;5.53;3.05;;;;;;;21.76;53.75;101089.97;4987209;28;20055;-58
2023/10/23 00:13:59;;;;;;;5.30;2.88;;;;;;;21.77;53.72;101094.34;4988029;28;20046;-58
2023/10/23 00:16:27;;;;;;;4.32;2.85;;;;;;;21.77;53.69;101097.06;4987683;28;20106;-58
2023/10/23 00:18:54;;;;;;;3.63;2.50;;;;;;;21.75;53.69;101096.31;4984040;28;20042;-57
2023/10/23 00:21:22;;;;;;;4.43;2.88;;;;;;;21.75;53.71;101104.41;4987104;28;20049;-57
2023/10/23 00:23:50;;;;;;;4.88;2.30;;;;;;;21.75;53.68;101107.09;4987719;28;20050;-56
2023/10/23 00:26:17;;;;;;;4.32;2.97;;;;;;;21.74;53.70;101117.03;4987311;28;20046;-56
2023/10/23 00:28:50;;;;;;;4.13;2.47;;;;;;;21.74;53.78;101119.72;4985265;28;20054;-56
2023/10/23 00:31:17;;;;;;;3.80;2.20;;;;;;;21.73;53.67;101120.72;4991892;28;20054;-57
2023/10/23 00:33:45;;;;;;;3.42;2.20;;;;;;;21.73;53.64;101121.59;4987458;28;20063;-56
2023/10/23 00:36:12;;;;;;;3.85;2.13;;;;;;;21.73;53.62;101116.19;4976663;28;20043;-56
2023/10/23 00:38:40;;;;;;;4.10;2.63;;;;;;;21.73;53.53;101118.03;4988088;28;20038;-57
2023/10/23 00:41:07;;;;;;;4.55;2.58;;;;;;;21.72;53.62;101114.50;4984785;28;20062;-56
2023/10/23 00:43:34;;;;;;;2.90;2.25;;;;;;;21.72;53.53;101116.34;4989331;28;20043;-56
2023/10/23 00:46:12;;;;;;;4.88;2.60;;;;;;;21.71;53.54;101112.81;4983821;28;20059;-57
2023/10/23 00:48:40;;;;;;;4.10;2.47;;;;;;;21.70;53.54;101116.47;4985300;28;20486;-56
2023/10/23 00:51:11;;;;;;;4.22;2.25;;;;;;;21.70;53.46;101123.69;4988558;28;20496;-57
2023/10/23 00:53:40;;;;;;;4.00;2.40;;;;;;;21.71;53.44;101122.69;4987874;28;20057;-58
2023/10/23 00:56:09;;;;;;;3.80;2.22;;;;;;;21.69;53.45;101120.16;4987089;28;20051;-58
2023/10/23 00:58:41;;;;;;;4.38;2.30;;;;;;;21.70;53.50;101119.16;4990901;28;20046;-58
2023/10/23 01:01:11;;;;;;;4.10;2.53;;;;;;;21.69;53.44;101116.63;4987897;28;20054;-56
2023/10/23 01:03:40;;;;;;;3.65;2.30;;;;;;;21.69;53.23;101125.56;4988181;28;20061;-56
2023/10/23 01:06:09;;;;;;;6.50;2.40;;;;;;;21.68;53.37;101121.16;4988043;28;20043;-56
2023/10/23 01:08:37;;;;;;;3.97;2.38;;;;;;;21.67;53.33;101107.81;4987444;28;20042;-57
2023/10/23 01:11:04;;;;;;;3.22;2.03;;;;;;;21.68;53.25;101112.22;4994772;28;20061;-58
2023/10/23 01:13:32;;;;;;;4.55;2.50;;;;;;;21.68;53.21;101104.16;4991213;28;20393;-58
2023/10/23 01:15:59;;;;;;;5.28;2.45;;;;;;;21.68;53.21;101106.84;4987605;28;20053;-58
2023/10/23 01:18:26;;;;;;;3.60;2.10;;;;;;;21.68;53.25;101102.28;4994500;28;20062;-58
2023/10/23 01:20:54;;;;;;;3.47;2.45;;;;;;;21.66;53.45;101098.88;4990927;28;20061;-57
2023/10/23 01:23:28;;;;;;;3.95;2.30;;;;;;;21.66;53.35;101096.19;5017582;28;20082;-57
2023/10/23 01:25:55;;;;;;;3.92;2.13;;;;;;;21.67;53.22;101097.03;4987691;28;20043;-57
2023/10/23 01:28:24;;;;;;;4.57;2.30;;;;;;;21.66;53.29;101090.78;4989865;28;20058;-57
2023/10/23 01:30:51;;;;;;;4.28;2.30;;;;;;;21.66;53.25;101079.16;4991432;28;20046;-57
2023/10/23 01:33:19;;;;;;;4.45;2.10;;;;;;;21.65;53.24;101089.09;4989377;28;20477;-57
2023/10/23 01:35:46;;;;;;;4.30;2.67;;;;;;;21.64;53.34;101087.41;5016383;28;20058;-56
2023/10/23 01:38:14;;;;;;;4.45;2.50;;;;;;;21.65;53.22;101082.88;4990234;28;20492;-57
2023/10/23 01:40:41;;;;;;;4.25;2.00;;;;;;;21.64;53.18;101073.09;4991090;28;20050;-58
2023/10/23 01:43:08;;;;;;;3.58;2.47;;;;;;;21.64;53.15;101071.25;4990281;28;20050;-57
2023/10/23 01:45:36;;;;;;;3.70;2.08;;;;;;;21.64;53.21;101084.72;4991261;28;20047;-57
2023/10/23 01:48:05;;;;;;;3.47;2.20;;;;;;;21.63;53.14;101083.00;4989949;28;20065;-57
2023/10/23 01:50:33;;;;;;;3.75;2.17;;;;;;;21.64;53.20;101087.41;4990743;28;20059;-57
2023/10/23 01:53:00;;;;;;;3.60;2.17;;;;;;;21.64;52.84;101092.78;5016159;28;20077;-57
2023/10/23 01:55:28;;;;;;;2.97;2.03;;;;;;;21.63;52.95;101096.50;4988017;28;20497;-58
2023/10/23 01:57:57;;;;;;;3.47;2.50;;;;;;;21.62;53.04;101089.38;4990888;28;20050;-58
2023/10/23 02:00:25;;;;;;;3.83;2.22;;;;;;;21.63;52.91;101085.72;4994344;28;20046;-58
2023/10/23 02:02:54;;;;;;;4.20;2.83;;;;;;;21.62;53.01;101092.06;4989515;28;20054;-58
2023/10/23 02:05:21;;;;;;;4.07;2.45;;;;;;;21.62;52.93;101094.75;4989398;28;20170;-58
2023/10/23 02:07:49;;;;;;;3.83;2.05;;;;;;;21.62;52.91;101089.38;4990636;28;20050;-58
2023/10/23 02:10:16;;;;;;;3.40;2.10;;;;;;;21.62;52.97;101093.91;4993796;28;20050;-58
2023/10/23 02:12:43;;;;;;;2.80;1.85;;;;;;;21.61;52.96;101090.38;4988603;28;20050;-58
2023/10/23 02:15:11;;;;;;;3.90;2.10;;;;;;;21.60;52.92;101094.06;4988415;28;20399;-58
2023/10/23 02:17:38;;;;;;;4.85;2.17;;;;;;;21.61;52.86;101094.91;4993731;28;20058;-58
2023/10/23 02:20:06;;;;;;;4.40;2.15;;;;;;;21.60;52.80;101099.47;4993843;28;20046;-57
2023/10/23 02:22:34;;;;;;;5.78;2.03;;;;;;;21.60;52.91;101090.53;4992271;28;20510;-57
2023/10/23 02:25:01;;;;;;;3.30;1.90;;;;;;;21.60;52.92;101091.38;4990327;28;20047;-57
2023/10/23 02:27:29;;;;;;;4.07;2.22;;;;;;;21.60;52.86;101090.53;4990442;28;20046;-57
2023/10/23 02:29:56;;;;;;;3.83;1.92;;;;;;;21.59;52.73;101091.50;4989355;28;20050;-58
2023/10/23 02:32:24;;;;;;;4.25;2.13;;;;;;;21.59;52.76;101089.69;4988298;28;20058;-58
2023/10/23 02:34:51;;;;;;;3.13;1.83;;;;;;;21.59;52.80;101089.69;4989383;28;20050;-58
2023/10/23 02:37:19;;;;;;;3.40;2.15;;;;;;;21.58;52.67;101093.34;4989887;28;20055;-58
2023/10/23 02:39:46;;;;;;;3.28;2.10;;;;;;;21.58;52.72;101096.03;4991168;28;20042;-56
2023/10/23 02:42:14;;;;;;;4.10;1.80;;;;;;;21.59;52.71;101094.19;5016233;28;20517;-57
2023/10/23 02:44:43;;;;;;;3.30;1.80;;;;;;;21.58;52.76;101104.13;4992721;28;20050;-57
2023/10/23 02:47:10;;;;;;;3.58;2.00;;;;;;;21.58;52.73;101109.50;4989822;28;20054;-57
2023/10/23 02:49:38;;;;;;;3.33;1.95;;;;;;;21.58;52.63;101111.34;4993219;28;20047;-58
2023/10/23 02:52:06;;;;;;;3.33;1.75;;;;;;;21.56;52.71;101116.88;4988482;28;20046;-58
2023/10/23 02:54:34;;;;;;;3.08;1.45;;;;;;;21.57;52.69;101118.59;4989391;28;20054;-58
2023/10/23 02:57:02;;;;;;;3.33;1.90;;;;;;;21.57;52.75;101129.38;4989513;28;20497;-58
2023/10/23 02:59:33;;;;;;;2.95;1.67;;;;;;;21.58;52.93;101127.50;4986289;28;20058;-58
2023/10/23 03:02:01;;;;;;;3.38;1.80;;;;;;;21.59;53.12;101123.81;4987635;28;20058;-58
2023/10/23 03:04:29;;;;;;;3.30;1.98;;;;;;;21.58;53.12;101131.06;4990504;28;20692;-58
2023/10/23 03:06:56;;;;;;;2.90;1.85;;;;;;;21.58;53.33;101131.06;4993266;28;20065;-58
2023/10/23 03:09:24;;;;;;;3.97;1.80;;;;;;;21.59;53.24;101122.00;4985294;28;20055;-56
2023/10/23 03:11:51;;;;;;;2.97;1.75;;;;;;;21.59;53.44;101137.28;4989101;28;20077;-56
2023/10/23 03:14:19;;;;;;;2.33;1.50;;;;;;;21.59;53.26;101132.78;4988471;28;20417;-57
2023/10/23 03:16:47;;;;;;;3.70;1.55;;;;;;;21.59;53.27;101137.28;4989176;28;20423;-57
2023/10/23 03:19:14;;;;;;;3.13;1.92;;;;;;;21.58;53.25;101138.28;4989812;28;20488;-58
2023/10/23 03:21:42;;;;;;;3.33;1.63;;;;;;;21.58;53.17;101139.13;4987476;28;20058;-57
2023/10/23 03:24:09;;;;;;;3.28;1.63;;;;;;;21.57;53.04;101129.38;4992432;28;20054;-58
2023/10/23 03:26:37;;;;;;;2.92;1.67;;;;;;;21.56;52.95;101124.97;4989035;28;20050;-58
2023/10/23 03:29:04;;;;;;;2.47;1.58;;;;;;;21.55;52.81;101125.94;4984602;28;20054;-58
2023/10/23 03:31:35;;;;;;;3.28;1.80;;;;;;;21.55;52.89;101125.94;4985557;28;20537;-58
2023/10/23 03:34:03;;;;;;;3.25;1.88;;;;;;;21.54;53.17;101121.56;4992538;28;20042;-58
2023/10/23 03:36:30;;;;;;;3.30;1.60;;;;;;;21.55;53.13;101115.16;4988911;28;20069;-58
2023/10/23 03:38:57;;;;;;;3.28;1.70;;;;;;;21.54;53.25;101116.16;4984133;28;20038;-58
2023/10/23 03:41:26;;;;;;;4.68;1.98;;;;;;;21.55;53.18;101119.72;4990040;28;20059;-58
2023/10/23 03:43:54;;;;;;;3.05;1.55;;;;;;;21.55;53.21;101125.94;4992406;28;20065;-58
2023/10/23 03:46:21;;;;;;;3.40;1.58;;;;;;;21.55;53.37;101128.63;4989461;28;20053;-58
2023/10/23 03:48:49;;;;;;;3.30;1.83;;;;;;;21.55;53.32;101130.47;4989042;28;20053;-58
2023/10/23 03:51:16;;;;;;;4.25;1.80;;;;;;;21.55;53.17;101128.63;4986836;28;20049;-58
2023/10/23 03:53:44;;;;;;;4.90;1.73;;;;;;;21.55;53.23;101134.03;4987648;28;20057;-58
2023/10/23 03:56:11;;;;;;;3.55;1.80;;;;;;;21.54;53.26;101136.88;4989322;28;20043;-58
2023/10/23 03:58:39;;;;;;;3.33;1.80;;;;;;;21.54;53.31;101145.78;4989277;28;20421;-58
2023/10/23 04:01:06;;;;;;;4.13;1.70;;;;;;;21.53;53.26;101144.09;4985948;28;20051;-57
2023/10/23 04:03:33;;;;;;;2.30;1.23;;;;;;;21.53;53.12;101141.41;4988048;28;20050;-57
2023/10/23 04:06:04;;;;;;;3.00;1.55;;;;;;;21.54;53.21;101145.78;4989092;28;20042;-57
2023/10/23 04:08:32;;;;;;;3.20;1.70;;;;;;;21.53;53.17;101144.09;4989146;28;20050;-57
2023/10/23 04:10:59;;;;;;;4.15;1.85;;;;;;;21.53;53.16;101144.09;4985593;28;20411;-57
2023/10/23 04:13:27;;;;;;;3.00;1.75;;;;;;;21.51;53.19;101135.28;4989573;28;20042;-57
2023/10/23 04:15:58;;;;;;;2.67;1.63;;;;;;;21.50;53.15;101133.59;4989279;28;20069;-57
2023/10/23 04:18:26;;;;;;;3.15;1.50;;;;;;;21.51;53.13;101137.13;4989344;28;20046;-57
2023/10/23 04:21:03;;;;;;;3.58;1.38;;;;;;;21.50;53.07;101133.59;4978816;28;20043;-57
2023/10/23 04:23:31;;;;;;;4.90;1.67;;;;;;;21.50;52.92;101132.75;4983613;28;20425;-56
2023/10/23 04:25:58;;;;;;;4.00;2.00;;;;;;;21.48;52.86;101136.44;4988917;28;20057;-57
2023/10/23 04:28:26;;;;;;;3.50;1.58;;;;;;;21.50;52.98;101146.22;4987999;28;20050;-57
2023/10/23 04:30:55;;;;;;;3.08;1.40;;;;;;;21.48;52.99;101146.38;4986254;28;20058;-58
2023/10/23 04:33:23;;;;;;;3.40;1.60;;;;;;;21.48;52.94;101141.81;4988931;28;20493;-57
2023/10/23 04:35:54;;;;;;;4.53;1.67;;;;;;;21.48;52.89;101149.06;4988874;28;20057;-58
2023/10/23 04:38:22;;;;;;;2.85;1.58;;;;;;;21.48;53.08;101151.75;4987994;28;20057;-58
2023/10/23 04:40:50;;;;;;;2.80;1.50;;;;;;;21.47;53.02;101152.72;4990238;28;20049;-58
2023/10/23 04:43:17;;;;;;;2.72;1.60;;;;;;;21.47;53.10;101150.03;4993171;28;20053;-58
2023/10/23 04:45:45;;;;;;;2.63;1.40;;;;;;;21.46;52.98;101148.31;4993822;28;20054;-58
2023/10/23 04:48:12;;;;;;;2.20;1.38;;;;;;;21.46;52.84;101140.25;4991228;28;20058;-58
2023/10/23 04:50:40;;;;;;;3.67;1.48;;;;;;;21.45;52.87;101139.41;4991443;28;20047;-57
2023/10/23 04:53:07;;;;;;;2.78;1.48;;;;;;;21.47;52.95;101147.34;4992799;28;20050;-58
2023/10/23 04:55:36;;;;;;;2.83;1.60;;;;;;;21.45;52.92;101147.47;4992940;28;20159;-58
2023/10/23 04:58:04;;;;;;;2.97;1.70;;;;;;;21.45;52.91;101147.47;4990922;28;20055;-58
2023/10/23 05:00:35;;;;;;;2.88;1.58;;;;;;;21.44;52.83;101145.78;4991358;28;20405;-58
2023/10/23 05:03:04;;;;;;;3.03;1.30;;;;;;;21.43;52.76;101141.41;4992304;28;20076;-58
2023/10/23 05:05:32;;;;;;;2.42;1.27;;;;;;;21.44;52.76;101144.94;4992986;28;20050;-58
2023/10/23 05:08:00;;;;;;;3.10;1.50;;;;;;;21.43;52.86;101143.22;4989795;28;20073;-58
2023/10/23 05:10:27;;;;;;;3.00;1.50;;;;;;;21.43;52.81;101145.91;4991414;28;20039;-58
2023/10/23 05:12:55;;;;;;;3.10;1.55;;;;;;;21.43;52.77;101145.91;4992114;28;20053;-58
2023/10/23 05:15:22;;;;;;;3.63;1.70;;;;;;;21.42;52.70;101145.06;4993128;28;20519;-58
2023/10/23 05:17:50;;;;;;;2.80;1.10;;;;;;;21.43;52.68;101154.88;4989351;28;20058;-58
2023/10/23 05:20:17;;;;;;;2.30;1.30;;;;;;;21.44;52.75;101144.94;4991970;28;20050;-58
2023/10/23 05:22:44;;;;;;;2.05;1.27;;;;;;;21.42;52.81;101145.06;4991861;28;20054;-58
2023/10/23 05:25:12;;;;;;;2.10;1.20;;;;;;;21.42;52.72;101147.75;4991930;28;20053;-57
2023/10/23 05:27:39;;;;;;;3.58;1.42;;;;;;;21.42;52.63;101152.28;4989318;28;20047;-58
2023/10/23 05:30:07;;;;;;;2.45;1.25;;;;;;;21.42;52.54;101142.38;4992259;28;20054;-57
2023/10/23 05:32:35;;;;;;;2.35;1.30;;;;;;;21.42;52.42;101136.13;4991938;28;20042;-57
2023/10/23 05:35:03;;;;;;;3.42;1.33;;;;;;;21.42;52.39;101123.50;4994929;28;20053;-57
2023/10/23 05:37:35;;;;;;;3.13;1.10;;;;;;;21.42;52.35;101119.97;4988889;28;20050;-57
2023/10/23 05:40:05;;;;;;;3.58;1.30;;;;;;;21.42;52.33;101125.34;4993356;28;20054;-57
2023/10/23 05:42:33;;;;;;;2.90;1.63;;;;;;;21.41;52.24;101124.50;4992074;28;20050;-57
2023/10/23 05:45:02;;;;;;;2.30;1.30;;;;;;;21.41;52.21;101129.91;4995176;28;20046;-57
2023/10/23 05:47:30;;;;;;;2.65;1.20;;;;;;;21.41;52.19;101129.03;4991875;28;20059;-57
2023/10/23 05:49:57;;;;;;;2.35;1.10;;;;;;;21.41;52.21;101131.75;4991345;28;20050;-58
2023/10/23 05:52:24;;;;;;;2.22;1.30;;;;;;;21.42;51.96;101131.59;4991941;28;20061;-58
2023/10/23 05:54:52;;;;;;;2.75;1.13;;;;;;;21.41;52.03;101145.22;4991821;28;20047;-58
2023/10/23 05:57:19;;;;;;;2.65;1.20;;;;;;;21.40;51.91;101136.28;4991715;28;20047;-57
2023/10/23 05:59:46;;;;;;;2.42;1.40;;;;;;;21.40;51.92;101138.13;4992445;28;20054;-58
2023/10/23 06:02:15;;;;;;;2.35;1.15;;;;;;;21.41;52.06;101147.91;4992396;28;20042;-58
2023/10/23 06:04:43;;;;;;;3.42;1.30;;;;;;;21.41;52.06;101150.59;4991948;28;20068;-58
2023/10/23 06:07:11;;;;;;;2.92;1.52;;;;;;;21.41;52.05;101145.22;4989834;28;20062;-58
2023/10/23 06:09:40;;;;;;;2.13;1.10;;;;;;;21.41;51.98;101150.59;4992389;28;20050;-58
2023/10/23 06:12:09;;;;;;;2.25;1.23;;;;;;;21.40;52.00;101160.53;4991331;28;20512;-58
2023/10/23 06:14:37;;;;;;;2.80;1.52;;;;;;;21.40;51.94;101165.06;4990809;28;20054;-58
2023/10/23 06:17:04;;;;;;;2.17;1.10;;;;;;;21.41;51.88;101177.53;4989160;28;20056;-58
2023/10/23 06:19:32;;;;;;;3.28;1.40;;;;;;;21.40;51.95;101195.53;4991297;28;20054;-57
2023/10/23 06:22:00;;;;;;;2.33;1.38;;;;;;;21.40;52.01;101209.00;4991037;28;20050;-57
2023/10/23 06:24:27;;;;;;;1.90;0.98;;;;;;;21.39;51.82;101210.00;4991080;28;20401;-57
2023/10/23 06:26:55;;;;;;;3.00;1.35;;;;;;;21.41;51.85;101212.53;4989093;28;20050;-57
2023/10/23 06:29:23;;;;;;;3.30;1.95;;;;;;;21.40;51.84;101210.84;4991802;28;20053;-57
2023/10/23 06:31:51;;;;;;;2.75;1.40;;;;;;;21.39;51.86;101201.91;4992028;28;20049;-57
2023/10/23 06:34:18;;;;;;;3.78;1.30;;;;;;;21.39;51.72;101206.44;4991106;28;20050;-57
2023/10/23 06:36:45;;;;;;;2.40;1.25;;;;;;;21.39;51.76;101215.38;4988739;28;20050;-58
2023/10/23 06:39:13;;;;;;;3.20;1.27;;;;;;;21.38;51.91;101213.66;4991212;28;20057;-57
2023/10/23 06:41:40;;;;;;;2.55;1.20;;;;;;;21.40;52.10;101218.94;4989413;28;20481;-58
2023/10/23 06:44:09;;;;;;;2.53;1.20;;;;;;;21.40;52.18;101221.63;4986352;28;20059;-58
2023/10/23 06:46:37;;;;;;;2.55;1.40;;;;;;;21.39;52.24;101231.53;4988695;28;20046;-58
2023/10/23 06:49:04;;;;;;;3.83;1.40;;;;;;;21.40;52.57;101230.53;4991657;28;20500;-57
2023/10/23 06:51:36;;;;;;;2.30;1.15;;;;;;;21.42;52.63;101222.31;4991221;28;20505;-58
2023/10/23 06:54:04;;;;;;;2.22;1.20;;;;;;;21.42;52.53;101216.94;4990005;28;20417;-58
2023/10/23 06:56:31;;;;;;;3.30;1.48;;;;;;;21.42;52.80;101225.84;4989829;28;20046;-58
2023/10/23 06:58:58;;;;;;;2.30;1.30;;;;;;;21.43;52.93;101242.88;4991218;28;20511;-58
2023/10/23 07:01:26;;;;;;;3.13;1.45;;;;;;;21.42;52.77;101241.19;4990808;28;20489;-58
2023/10/23 07:04:10;;;;;;;5.22;1.23;;;;;;;21.42;52.82;101242.03;4988020;28;20047;-58
2023/10/23 07:06:38;;;;;;;3.10;1.40;;;;;;;21.43;52.73;101240.19;4992362;28;20050;-57
2023/10/23 07:09:05;;;;;;;3.67;1.90;;;;;;;21.44;52.62;101240.06;4990823;28;20050;-58
2023/10/23 07:11:33;;;;;;;4.10;1.80;;;;;;;21.47;51.77;101242.50;4991821;28;20046;-57
2023/10/23 07:14:01;;;;;;;4.30;2.13;;;;;;;21.53;51.28;101238.38;4991629;28;20054;-57
2023/10/23 07:16:28;;;;;;;5.03;2.45;;;;;;;21.55;50.67;101239.09;4989849;28;20046;-58
2023/10/23 07:18:55;;;;;;;3.38;2.03;;;;;;;21.56;50.15;101231.88;4990478;28;20047;-57
2023/10/23 07:21:25;;;;;;;3.85;2.20;;;;;;;21.55;49.91;101236.41;4990021;28;20413;-60
2023/10/23 07:23:53;;;;;;;3.90;2.10;;;;;;;21.56;49.91;101235.44;4987409;28;20054;-59
2023/10/23 07:26:20;;;;;;;6.30;2.60;;;;;;;21.57;49.78;101231.75;4990148;28;20050;-60
2023/10/23 07:28:48;;;;;;;5.50;2.33;;;;;;;21.58;49.88;101241.53;4990261;28;20057;-61
2023/10/23 07:31:16;;;;;;;5.03;2.13;;;;;;;21.60;49.78;101247.63;4990656;28;20050;-58
2023/10/23 07:33:44;;;;;;;3.85;2.30;;;;;;;21.62;49.58;101253.72;4989848;28;20054;-61
2023/10/23 07:36:13;;;;;;;3.97;2.05;;;;;;;21.63;49.26;101258.16;4990005;28;20043;-56
2023/10/23 07:38:42;;;;;;;5.25;2.60;;;;;;;21.63;49.32;101252.75;4990853;28;20045;-56
2023/10/23 07:41:10;;;;;;;4.10;2.22;;;;;;;21.63;49.10;101254.56;4990396;28;20050;-56
2023/10/23 07:43:38;;;;;;;3.75;2.17;;;;;;;21.60;48.92;101253.03;4989345;28;20046;-56
2023/10/23 07:46:10;;;;;;;5.68;2.75;;;;;;;21.61;48.95;101252.03;4991959;28;20058;-57
2023/10/23 07:48:44;;;;;;;5.13;2.28;;;;;;;21.60;48.85;101257.56;4984267;28;20058;-57
2023/10/23 07:51:12;;;;;;;5.35;2.92;;;;;;;21.59;48.71;101259.41;4988090;28;20061;-58
2023/10/23 07:53:40;;;;;;;6.15;2.55;;;;;;;21.59;48.53;101259.41;4989841;28;20042;-57
2023/10/23 07:56:08;;;;;;;3.72;2.33;;;;;;;21.57;48.25;101258.69;4990382;28;20497;-59
2023/10/23 07:58:35;;;;;;;6.25;3.22;;;;;;;21.58;48.15;101271.16;4991179;28;20054;-60
2023/10/23 08:01:08;;;;;;;5.68;2.63;;;;;;;21.57;48.53;101279.38;4988916;28;20046;-55
2023/10/23 08:03:36;;;;;;;4.05;2.60;;;;;;;21.56;48.64;101275.00;4983819;28;20524;-57
2023/10/23 08:06:08;;;;;;;4.70;2.63;;;;;;;21.57;48.56;101274.00;4989714;28;20091;-52
2023/10/23 08:08:37;;;;;;;6.65;2.60;;;;;;;21.58;48.49;101268.47;4990479;28;20053;-53
2023/10/23 08:11:09;;;;;;;5.80;3.03;;;;;;;21.59;48.34;101269.31;4988818;28;20046;-59
2023/10/23 08:13:37;;;;;;;5.32;3.15;;;;;;;21.60;48.36;101269.19;4990630;28;20054;-55
2023/10/23 08:16:05;;;;;;;7.60;2.88;;;;;;;21.62;48.31;101272.59;4993938;28;20042;-58
2023/10/23 08:18:36;;;;;;;3.92;2.50;;;;;;;21.63;48.55;101274.31;4994251;28;20046;-59
2023/10/23 08:21:12;;;;;;;5.65;3.08;;;;;;;21.67;48.60;101272.16;4992749;28;20043;-57
2023/10/23 08:23:46;;;;;;;4.45;2.38;;;;;;;21.68;48.77;101266.66;4994240;28;20062;-55
2023/10/23 08:26:14;;;;;;;4.75;2.65;;;;;;;21.71;49.01;101277.19;4994176;28;20049;-56
2023/10/23 08:28:41;;;;;;;5.00;3.28;;;;;;;21.73;48.93;101275.19;4991645;28;20046;-54
2023/10/23 08:31:12;;;;;;;4.43;2.53;;;;;;;21.74;48.96;101265.25;4989977;28;20038;-57
2023/10/23 08:33:59;;;;;;;3.55;2.60;;;;;;;21.76;49.63;101259.75;4990633;28;20050;-59
2023/10/23 08:36:27;;;;;;;7.15;2.33;;;;;;;21.77;50.04;101261.44;4992584;28;20046;-58
2023/10/23 08:38:54;;;;;;;3.67;2.15;;;;;;;21.78;50.40;101268.53;4992946;28;20057;-57
2023/10/23 08:41:22;;;;;;;4.60;2.28;;;;;;;21.79;50.46;101260.28;4992708;28;20496;-58
2023/10/23 08:43:49;;;;;;;6.50;2.13;;;;;;;21.82;50.48;101248.41;4989515;28;20074;-57
2023/10/23 08:46:17;;;;;;;4.75;2.35;;;;;;;21.82;50.39;101246.56;4992425;28;20045;-56
2023/10/23 08:48:44;;;;;;;5.78;2.58;;;;;;;21.83;50.18;101253.63;4993237;28;20057;-58
2023/10/23 08:51:14;;;;;;;3.80;2.28;;;;;;;21.84;50.00;101254.53;4994184;28;20042;-58
2023/10/23 08:54:00;;;;;;;6.38;2.63;;;;;;;21.84;50.01;101251.81;4993758;28;20046;-56
2023/10/23 08:56:35;;;;;;;5.07;2.25;;;;;;;21.84;50.13;101257.22;4993004;28;20377;-56
2023/10/23 08:59:03;;;;;;;3.33;2.05;;;;;;;21.86;50.20;101257.91;4990554;28;20500;-58
2023/10/23 09:01:34;;;;;;;4.43;2.35;;;;;;;21.86;50.18;101266.00;4987641;28;20042;-58
2023/10/23 09:04:05;;;;;;;4.53;2.58;;;;;;;21.86;50.20;101256.06;4991964;28;20049;-54
2023/10/23 09:06:35;;;;;;;4.25;2.80;;;;;;;21.87;49.73;101249.69;4986496;28;20043;-56
2023/10/23 09:09:07;;;;;;;3.72;2.03;;;;;;;21.87;49.46;101251.53;4993664;28;20051;-59
2023/10/23 09:11:45;;;;;;;6.85;2.50;;;;;;;21.88;49.54;101259.50;4993309;28;20421;-58
2023/10/23 09:14:28;;;;;;;5.82;2.50;;;;;;;21.89;49.54;101258.50;4991702;28;20050;-57
2023/10/23 09:16:56;;;;;;;5.32;2.03;;;;;;;21.89;49.61;101253.09;4994380;28;20050;-56
2023/10/23 09:19:25;;;;;;;4.57;2.72;;;;;;;21.90;50.05;101243.16;4993752;28;20046;-56
2023/10/23 09:21:55;;;;;;;3.90;1.92;;;;;;;21.91;50.21;101242.16;4990750;28;20069;-55
2023/10/23 09:24:23;;;;;;;6.05;2.30;;;;;;;21.92;50.30;101241.19;4992688;28;20050;-56
2023/10/23 09:26:51;;;;;;;5.68;2.63;;;;;;;21.93;50.24;101237.50;4993758;28;20050;-56
2023/10/23 09:29:23;;;;;;;3.58;2.05;;;;;;;21.93;50.22;101237.50;4993393;28;20050;-55
2023/10/23 09:31:53;;;;;;;2.88;1.75;;;;;;;21.93;50.19;101243.75;4993882;28;20050;-59
2023/10/23 09:34:21;;;;;;;2.83;1.85;;;;;;;21.94;50.13;101239.19;4993069;28;20050;-57
2023/10/23 09:36:51;;;;;;;3.88;2.03;;;;;;;21.93;50.24;101246.44;4993175;28;20513;-57
2023/10/23 09:39:23;;;;;;;5.90;2.42;;;;;;;21.94;50.55;101248.13;4992269;28;20060;-57
2023/10/23 09:41:52;;;;;;;4.60;1.48;;;;;;;21.94;50.17;101248.13;4992371;28;20064;-57
2023/10/23 09:44:20;;;;;;;4.70;1.83;;;;;;;21.95;50.04;101251.69;4991266;28;20473;-59
2023/10/23 09:46:48;;;;;;;5.32;1.85;;;;;;;21.96;50.21;101245.31;4992505;28;20046;-59
2023/10/23 09:49:16;;;;;;;4.25;1.90;;;;;;;21.95;50.11;101244.44;4991715;28;20412;-57
2023/10/23 09:51:48;;;;;;;2.47;1.40;;;;;;;21.93;49.95;101249.13;4993721;28;20393;-58
2023/10/23 09:54:19;;;;;;;3.17;1.38;;;;;;;21.92;49.92;101252.84;4992812;28;20062;-57
2023/10/23 09:56:54;;;;;;;4.47;1.83;;;;;;;21.92;50.09;101260.06;4992997;28;20053;-57
2023/10/23 09:59:29;;;;;;;7.65;1.77;;;;;;;21.90;50.26;101249.41;4989615;28;20074;-58
2023/10/23 10:02:01;;;;;;;3.88;1.60;;;;;;;21.91;50.23;101245.72;4994814;28;20054;-57
2023/10/23 10:04:43;;;;;;;4.28;1.80;;;;;;;21.93;50.72;101257.22;4994746;28;20038;-56
2023/10/23 10:07:19;;;;;;;3.88;1.80;;;;;;;21.96;51.55;101251.56;4994494;28;20050;-56
2023/10/23 10:09:47;;;;;;;4.40;1.42;;;;;;;21.97;52.39;101253.25;4995181;28;20042;-61
2023/10/23 10:12:17;;;;;;;3.78;1.58;;;;;;;21.98;53.14;101259.50;4994748;28;20057;-58
2023/10/23 10:14:47;;;;;;;3.63;1.70;;;;;;;21.97;53.04;101258.66;4994857;28;20038;-59
2023/10/23 10:17:19;;;;;;;4.82;1.73;;;;;;;21.98;53.04;101256.81;4994609;28;20050;-56
2023/10/23 10:19:47;;;;;;;3.10;1.85;;;;;;;21.98;53.45;101248.72;4994695;28;20046;-59
2023/10/23 10:22:26;;;;;;;4.38;1.40;;;;;;;21.98;53.85;101251.41;4994267;28;20069;-59
2023/10/23 10:24:54;;;;;;;3.78;1.30;;;;;;;21.97;54.18;101249.72;4994871;28;20054;-58
2023/10/23 10:27:22;;;;;;;2.50;1.33;;;;;;;21.97;54.37;101252.41;4993972;28;20061;-57
2023/10/23 10:29:51;;;;;;;3.22;1.45;;;;;;;21.97;54.68;101250.56;4983613;28;20050;-57
2023/10/23 10:32:23;;;;;;;2.97;1.42;;;;;;;21.96;55.03;101245.31;4988010;28;20042;-57
2023/10/23 10:34:53;;;;;;;2.47;1.13;;;;;;;21.97;54.90;101244.31;4992842;28;20058;-55
2023/10/23 10:37:27;;;;;;;4.80;1.20;;;;;;;21.97;55.10;101233.53;4993723;28;20038;-57
2023/10/23 10:39:54;;;;;;;2.40;1.00;;;;;;;21.96;55.17;101229.16;4983463;28;20497;-58
2023/10/23 10:42:23;;;;;;;2.78;1.48;;;;;;;21.95;55.08;101228.28;4989670;28;20054;-57
2023/10/23 10:44:59;;;;;;;2.75;1.25;;;;;;;21.95;54.85;101225.56;4989402;28;20501;-55
2023/10/23 10:47:37;;;;;;;2.40;1.40;;;;;;;21.95;54.81;101224.72;4993059;28;20401;-57
2023/10/23 10:50:05;;;;;;;2.35;1.30;;;;;;;21.96;54.90;101226.47;4988565;28;20046;-57
2023/10/23 10:52:34;;;;;;;3.72;1.73;;;;;;;21.95;54.90;101232.81;4990740;28;20054;-57
2023/10/23 10:55:04;;;;;;;2.63;1.40;;;;;;;21.94;54.95;101229.28;4992096;28;20049;-58
2023/10/23 10:57:31;;;;;;;2.78;1.40;;;;;;;21.95;54.92;101224.72;4995948;28;20069;-57
2023/10/23 10:59:59;;;;;;;3.05;1.35;;;;;;;21.93;54.76;101208.72;4991151;28;20409;-58
2023/10/23 11:02:27;;;;;;;3.17;1.27;;;;;;;21.94;54.14;101212.25;4991768;28;20069;-59
2023/10/23 11:04:54;;;;;;;2.47;1.17;;;;;;;21.93;53.95;101210.56;4991738;28;20043;-54
2023/10/23 11:07:26;;;;;;;2.15;1.10;;;;;;;21.92;54.23;101198.91;4992855;28;20057;-57
2023/10/23 11:09:54;;;;;;;3.20;1.05;;;;;;;21.93;54.43;101189.84;4990486;28;20054;-57
2023/10/23 11:12:21;;;;;;;2.63;1.10;;;;;;;21.93;54.71;101189.84;4993161;28;20054;-55
2023/10/23 11:14:49;;;;;;;3.95;1.35;;;;;;;21.94;54.96;101196.06;4991822;28;20388;-61
2023/10/23 11:17:16;;;;;;;3.58;1.20;;;;;;;21.94;55.19;101190.69;4991844;28;20049;-58
2023/10/23 11:19:44;;;;;;;3.50;1.48;;;;;;;21.93;55.28;101189.00;4992197;28;20050;-57
2023/10/23 11:22:13;;;;;;;3.17;1.35;;;;;;;21.91;55.66;101182.88;4995423;28;20077;-57
2023/10/23 11:24:41;;;;;;;3.00;1.33;;;;;;;21.87;56.05;101178.75;4991573;28;20093;-56
2023/10/23 11:27:09;;;;;;;4.45;1.30;;;;;;;21.86;56.16;101174.34;4988030;28;20046;-58
2023/10/23 11:29:42;;;;;;;4.38;1.40;;;;;;;21.85;56.21;101170.81;4990300;28;20053;-57
2023/10/23 11:32:14;;;;;;;3.97;1.65;;;;;;;21.85;55.87;101169.97;4984661;28;20057;-57